Trine Charlotte — LMRY — position and weather

sailwx.info

Track history (hours):
 
Tides and Currents Weather Stations Pressure Air Temp Water Temp Dewpoint Dewpoint Depression Visibility Wind Speed Wind Dir Waves Ship Positions

Trine Charlotte

Last reported at 2017-Mar-29 14:33 UTC. Time now 2017-Mar-29 15:05 UTC.
Position N 69°58' E 023°13'.

Length 66 m; draft 4.4 m.

Type: Cargo ship. MMSI: 257233000.

Date/timePositionNaut miles runAvg speedWind from/ knotsBaromVisibWave heightAir tempDewpointWater temp
2017-Mar-29 14:33N 69°58' E 023°13'0 0.0
2017-Mar-29 13:33N 69°58' E 023°13'0 0.0
2017-Mar-29 12:33N 69°58' E 023°13'0 0.0
2017-Mar-29 11:33N 69°58' E 023°13'0 0.0
2017-Mar-29 10:33N 69°58' E 023°13'0 0.0
2017-Mar-29 09:33N 69°58' E 023°13'0 0.0
2017-Mar-29 08:33N 69°58' E 023°13'0 0.0
2017-Mar-29 07:33N 69°58' E 023°13'0 0.0
2017-Mar-29 06:33N 69°58' E 023°13'0 0.0
2017-Mar-29 05:32N 69°58' E 023°13'4 4.2
2017-Mar-29 04:33N 70°01' E 023°09'8 8.2
2017-Mar-29 03:33N 70°09' E 023°02'8 7.7
2017-Mar-29 02:33N 70°14' E 022°44'8 8.2
2017-Mar-29 01:33N 70°17' E 022°21'8 8.2
2017-Mar-29 00:33N 70°21' E 021°60'7 7.1
2017-Mar-28 23:33N 70°23' E 021°40'7 6.8
2017-Mar-28 22:33N 70°18' E 021°26'6 6.5
2017-Mar-28 21:33N 70°14' E 021°11'5 5.4
2017-Mar-28 20:33N 70°09' E 021°09'7 6.6
2017-Mar-28 19:33N 70°02' E 021°08'7 7.1
2017-Mar-28 18:33N 69°55' E 021°04'8 8.0
2017-Mar-28 17:33N 69°48' E 020°56'0 0.1
2017-Mar-28 16:33N 69°48' E 020°57'0 0.0
2017-Mar-28 15:05N 69°48' E 020°57'0 0.0
2017-Mar-28 14:33N 69°48' E 020°57'0 0.0
2017-Mar-28 13:29N 69°48' E 020°57'0 0.0
2017-Mar-28 12:32N 69°48' E 020°57'1 0.3
2017-Mar-28 10:32N 69°48' E 020°57'1 0.2
2017-Mar-28 08:14N 69°48' E 020°57'0 0.0
2017-Mar-28 07:27N 69°48' E 020°57'0 0.0
2017-Mar-28 05:15N 69°48' E 020°57'5 7.1
2017-Mar-28 04:33N 69°53' E 021°01'9 9.0
2017-Mar-28 03:33N 70°01' E 021°07'9 8.7
2017-Mar-28 02:33N 70°10' E 021°09'7 7.0
2017-Mar-28 01:33N 70°16' E 021°17'8 7.8
2017-Mar-28 00:33N 70°22' E 021°35'6 5.9
2017-Mar-27 23:33N 70°23' E 021°52'7 7.2
2017-Mar-27 22:33N 70°19' E 022°11'7 7.2
2017-Mar-27 21:33N 70°16' E 022°30'8 8.3
2017-Mar-27 20:33N 70°13' E 022°53'7 7.5
2017-Mar-27 19:33N 70°07' E 023°04'8 7.9
2017-Mar-27 18:33N 69°59' E 023°12'1 1.5
2017-Mar-27 17:33N 69°58' E 023°13'0 0.0
2017-Mar-27 16:32N 69°58' E 023°13'0 0.0
2017-Mar-27 15:33N 69°58' E 023°13'0 0.0
2017-Mar-27 14:33N 69°58' E 023°13'0 0.0
2017-Mar-27 13:33N 69°58' E 023°13'0 0.0
2017-Mar-27 12:33N 69°58' E 023°13'0 0.0
2017-Mar-27 11:33N 69°58' E 023°13'0 0.0
2017-Mar-27 10:32N 69°58' E 023°13'0 0.0
2017-Mar-27 09:33N 69°58' E 023°13'0 0.0
2017-Mar-27 08:33N 69°58' E 023°13'0 0.0
2017-Mar-27 07:32N 69°58' E 023°13'0 0.0
2017-Mar-27 06:33N 69°58' E 023°13'0 0.0
2017-Mar-27 05:33N 69°58' E 023°13'0 0.0
2017-Mar-27 04:33N 69°58' E 023°13'0 0.0
2017-Mar-27 03:33N 69°58' E 023°13'0 0.0
2017-Mar-27 02:33N 69°58' E 023°13'0 0.0
2017-Mar-27 01:33N 69°58' E 023°13'0 0.0
2017-Mar-27 00:33N 69°58' E 023°13'0 0.0
2017-Mar-26 23:32N 69°58' E 023°13'0 0.0
2017-Mar-26 22:33N 69°58' E 023°13'0 0.0
2017-Mar-26 21:33N 69°58' E 023°13'0 0.0
2017-Mar-26 20:33N 69°58' E 023°13'0 0.0
2017-Mar-26 19:33N 69°58' E 023°13'0 0.0
2017-Mar-26 18:32N 69°58' E 023°13'0 0.0
2017-Mar-26 17:33N 69°58' E 023°13'0 0.0
2017-Mar-26 16:32N 69°58' E 023°13'0 0.0
2017-Mar-26 15:33N 69°58' E 023°13'0 0.0
2017-Mar-26 14:33N 69°58' E 023°13'0 0.0
2017-Mar-26 13:33N 69°58' E 023°13'0 0.0
2017-Mar-26 12:33N 69°58' E 023°13'0 0.0
2017-Mar-26 11:33N 69°58' E 023°13'0 0.0
2017-Mar-26 10:32N 69°58' E 023°13'0 0.0
2017-Mar-26 09:33N 69°58' E 023°13'0 0.0
2017-Mar-26 08:33N 69°58' E 023°13'0 0.0
2017-Mar-26 07:32N 69°58' E 023°13'0 0.0
2017-Mar-26 06:33N 69°58' E 023°13'0 0.0
2017-Mar-26 05:33N 69°58' E 023°13'0 0.0
2017-Mar-26 04:32N 69°58' E 023°13'0 0.0
2017-Mar-26 03:33N 69°58' E 023°13'0 0.0
2017-Mar-26 02:33N 69°58' E 023°13'0 0.0
2017-Mar-26 01:33N 69°58' E 023°13'0 0.0
2017-Mar-26 00:33N 69°58' E 023°13'0 0.0
2017-Mar-25 23:33N 69°58' E 023°13'0 0.0
2017-Mar-25 22:33N 69°58' E 023°13'4 4.4
2017-Mar-25 21:33N 70°02' E 023°08'8 7.6
2017-Mar-25 20:33N 70°09' E 023°02'8 8.1
2017-Mar-25 19:33N 70°14' E 022°44'9 8.9
2017-Mar-25 18:33N 70°18' E 022°20'9 8.8
2017-Mar-25 17:33N 70°22' E 021°56'7 7.0
2017-Mar-25 16:32N 70°21' E 021°35'9 9.4
2017-Mar-25 15:33N 70°15' E 021°14'9 9.2
2017-Mar-25 14:33N 70°07' E 020°60'9 9.3
2017-Mar-25 13:32N 70°01' E 020°40'9 9.1
2017-Mar-25 12:33N 69°53' E 020°29'10 9.5
2017-Mar-25 11:33N 69°43' E 020°26'8 1.0
2017-Mar-25 03:20N 69°35' E 020°31'5 6.3
2017-Mar-25 02:33N 69°40' E 020°26'7 6.3
2017-Mar-25 01:29N 69°47' E 020°25'6 6.3
2017-Mar-25 00:33N 69°52' E 020°25'7 6.5
2017-Mar-24 23:33N 69°59' E 020°19'7 7.0
2017-Mar-24 22:33N 69°54' E 020°03'8 8.3
2017-Mar-24 21:33N 69°47' E 019°51'8 8.5
2017-Mar-24 20:33N 69°39' E 019°45'2 2.5
2017-Mar-24 19:33N 69°37' E 019°44'0 0.0
2017-Mar-24 18:33N 69°37' E 019°44'0 0.0
2017-Mar-24 17:33N 69°37' E 019°44'0 0.0
2017-Mar-24 16:33N 69°37' E 019°44'2 1.8
2017-Mar-24 15:33N 69°38' E 019°45'8 7.9
2017-Mar-24 14:33N 69°46' E 019°45'7 7.0
2017-Mar-24 13:32N 69°48' E 019°25'9 9.5
2017-Mar-24 12:33N 69°42' E 019°03'3 2.9
2017-Mar-24 11:33N 69°40' E 018°58'0 0.3
2017-Mar-24 10:33N 69°40' E 018°58'0 0.0
2017-Mar-24 09:33N 69°40' E 018°58'0 0.0
2017-Mar-24 08:33N 69°40' E 018°58'0 0.0
2017-Mar-24 07:33N 69°40' E 018°58'0 0.0
2017-Mar-24 06:33N 69°40' E 018°58'0 0.0
2017-Mar-24 05:32N 69°40' E 018°58'0 0.0
2017-Mar-24 04:33N 69°40' E 018°58'0 0.0
2017-Mar-24 03:33N 69°40' E 018°58'0 0.0
2017-Mar-24 02:32N 69°40' E 018°58'0 0.0
2017-Mar-24 01:32N 69°40' E 018°58'0 0.0
2017-Mar-24 00:33N 69°40' E 018°58'6 5.6
2017-Mar-23 23:33N 69°45' E 019°06'8 8.4
2017-Mar-23 22:33N 69°48' E 019°28'6 6.0
2017-Mar-23 21:33N 69°47' E 019°45'9 9.0
2017-Mar-23 20:32N 69°38' E 019°45'1 1.2
2017-Mar-23 19:32N 69°37' E 019°44'0 0.0
2017-Mar-23 18:33N 69°37' E 019°44'0 0.0
2017-Mar-23 17:33N 69°37' E 019°44'0 0.0
2017-Mar-23 16:33N 69°37' E 019°44'2 1.8
2017-Mar-23 15:10N 69°39' E 019°45'4 6.3
2017-Mar-23 14:33N 69°43' E 019°46'6 6.3
2017-Mar-23 13:33N 69°49' E 019°53'6 6.3
2017-Mar-23 12:33N 69°54' E 020°02'7 6.5
2017-Mar-23 11:32N 69°59' E 020°15'6 5.7
2017-Mar-23 10:33N 70°01' E 020°31'6 6.2
2017-Mar-23 09:33N 70°03' E 020°48'6 6.2
2017-Mar-23 08:32N 70°07' E 020°60'7 7.3
2017-Mar-23 07:33N 70°14' E 021°09'7 7.0
2017-Mar-23 06:33N 70°18' E 021°25'7 7.4
2017-Mar-23 05:33N 70°24' E 021°41'5 5.2
2017-Mar-23 04:33N 70°25' E 021°56'6 6.1
2017-Mar-23 03:33N 70°27' E 022°13'7 6.9
2017-Mar-23 02:33N 70°29' E 022°33'7 7.2
2017-Mar-23 01:33N 70°31' E 022°54'7 6.4
2017-Mar-23 00:32N 70°35' E 023°08'6 6.6
2017-Mar-22 23:33N 70°41' E 023°19'7 6.8
2017-Mar-22 22:33N 70°46' E 023°31'7 6.7
2017-Mar-22 21:33N 70°52' E 023°40'7 6.7
2017-Mar-22 20:33N 70°58' E 023°48'3 2.6
2017-Mar-22 19:32N 71°00' E 023°54'0 0.0
2017-Mar-22 18:32N 71°00' E 023°54'0 0.0
2017-Mar-22 17:33N 71°00' E 023°54'6 5.8
2017-Mar-22 16:32N 70°55' E 023°45'9 8.9
2017-Mar-22 15:33N 70°47' E 023°33'9 9.3
2017-Mar-22 14:33N 70°40' E 023°17'9 9.3
2017-Mar-22 13:33N 70°32' E 023°00'9 8.5
2017-Mar-22 12:33N 70°29' E 022°37'8 8.0
2017-Mar-22 11:33N 70°27' E 022°13'9 8.9
2017-Mar-22 10:33N 70°25' E 021°47'9 9.0
2017-Mar-22 09:33N 70°23' E 021°21'9 9.2
2017-Mar-22 08:33N 70°19' E 020°57'10 9.7
2017-Mar-22 07:33N 70°14' E 020°32'10 9.8
2017-Mar-22 06:33N 70°08' E 020°09'3 3.4
2017-Mar-22 05:33N 70°08' E 019°59'0 0.0
2017-Mar-22 04:33N 70°08' E 019°59'0 0.0
2017-Mar-22 03:33N 70°08' E 019°59'0 0.2
2017-Mar-22 02:33N 70°08' E 019°59'8 8.0
2017-Mar-22 01:33N 70°02' E 020°17'10 9.7
2017-Mar-22 00:33N 69°53' E 020°25'1010.1
2017-Mar-21 23:33N 69°43' E 020°26'6 0.9
2017-Mar-21 16:33N 69°37' E 020°28'7 7.3
2017-Mar-21 15:33N 69°44' E 020°26'8 7.5
2017-Mar-21 14:33N 69°52' E 020°25'7 7.4
2017-Mar-21 13:33N 69°59' E 020°18'9 8.7
2017-Mar-21 12:33N 69°54' E 019°57'9 8.6
2017-Mar-21 11:33N 69°50' E 019°35'9 8.8
2017-Mar-21 10:33N 69°46' E 019°12'8 8.1
2017-Mar-21 09:33N 69°40' E 018°58'0 0.1
2017-Mar-21 08:33N 69°40' E 018°58'0 0.0
2017-Mar-21 07:33N 69°40' E 018°58'0 0.0
2017-Mar-21 06:33N 69°40' E 018°58'0 0.0
2017-Mar-21 05:33N 69°40' E 018°58'0 0.0
2017-Mar-21 04:32N 69°40' E 018°58'0 0.0
2017-Mar-21 03:33N 69°40' E 018°58'0 0.0
2017-Mar-21 02:32N 69°40' E 018°58'0 0.0
2017-Mar-21 01:33N 69°40' E 018°58'0 0.0
2017-Mar-21 00:33N 69°40' E 018°58'0 0.0
2017-Mar-20 23:33N 69°40' E 018°58'0 0.0
2017-Mar-20 22:33N 69°40' E 018°58'0 0.0
2017-Mar-20 21:33N 69°40' E 018°58'6 5.7
2017-Mar-20 20:33N 69°35' E 018°50'8 8.1
2017-Mar-20 19:33N 69°31' E 018°29'8 8.4
2017-Mar-20 18:33N 69°28' E 018°07'9 8.9
2017-Mar-20 17:33N 69°19' E 017°60'8 8.3
2017-Mar-20 16:33N 69°11' E 017°60'9 8.8
2017-Mar-20 15:33N 69°07' E 017°38'9 8.4
2017-Mar-20 14:33N 69°02' E 017°18'8 7.7
2017-Mar-20 13:33N 68°56' E 017°04'8 8.2
2017-Mar-20 12:33N 68°51' E 016°47'6 5.7
2017-Mar-20 11:33N 68°47' E 016°36'0 0.0
2017-Mar-20 10:31N 68°47' E 016°36'0 0.0
2017-Mar-20 09:33N 68°47' E 016°36'0 0.0
2017-Mar-20 08:32N 68°47' E 016°36'6 6.1
2017-Mar-20 07:33N 68°41' E 016°40'9 9.2
2017-Mar-20 06:32N 68°33' E 016°25'6 6.6
2017-Mar-20 05:33N 68°31' E 016°09'9 9.1
2017-Mar-20 04:33N 68°22' E 015°59'8 8.5
2017-Mar-20 03:33N 68°18' E 015°39'6 5.7
2017-Mar-20 02:33N 68°21' E 015°26'0 0.0
2017-Mar-20 01:33N 68°21' E 015°26'0 0.0
2017-Mar-20 00:33N 68°21' E 015°26'1 1.0
2017-Mar-19 23:32N 68°20' E 015°28'7 6.7
2017-Mar-19 22:33N 68°13' E 015°28'9 9.3
2017-Mar-19 21:32N 68°06' E 015°11'1010.0
2017-Mar-19 20:33N 67°59' E 014°53'10 9.6
2017-Mar-19 19:33N 67°51' E 014°40'9 9.1
2017-Mar-19 18:33N 67°42' E 014°31'8 8.0
2017-Mar-19 17:33N 67°37' E 014°47'10 9.7
2017-Mar-19 16:33N 67°34' E 015°11'  
Track history (hours):
 
Tides and Currents Weather Stations Pressure Air Temp Water Temp Dewpoint Dewpoint Depression Visibility Wind Speed Wind Dir Waves Ship Positions

Trine Charlotte

Last reported at 2017-Mar-29 14:33 UTC. Time now 2017-Mar-29 15:05 UTC.
Position N 69°58' E 023°13'.

Length 66 m; draft 4.4 m.

Type: Cargo ship. MMSI: 257233000.

Date/timePositionNaut miles runAvg speedWind from/ knotsBaromVisibWave heightAir tempDewpointWater temp
2017-Mar-29 14:33N 69°58' E 023°13'0 0.0
2017-Mar-29 13:33N 69°58' E 023°13'0 0.0
2017-Mar-29 12:33N 69°58' E 023°13'0 0.0
2017-Mar-29 11:33N 69°58' E 023°13'0 0.0
2017-Mar-29 10:33N 69°58' E 023°13'0 0.0
2017-Mar-29 09:33N 69°58' E 023°13'0 0.0
2017-Mar-29 08:33N 69°58' E 023°13'0 0.0
2017-Mar-29 07:33N 69°58' E 023°13'0 0.0
2017-Mar-29 06:33N 69°58' E 023°13'0 0.0
2017-Mar-29 05:32N 69°58' E 023°13'4 4.2
2017-Mar-29 04:33N 70°01' E 023°09'8 8.2
2017-Mar-29 03:33N 70°09' E 023°02'8 7.7
2017-Mar-29 02:33N 70°14' E 022°44'8 8.2
2017-Mar-29 01:33N 70°17' E 022°21'8 8.2
2017-Mar-29 00:33N 70°21' E 021°60'7 7.1
2017-Mar-28 23:33N 70°23' E 021°40'7 6.8
2017-Mar-28 22:33N 70°18' E 021°26'6 6.5
2017-Mar-28 21:33N 70°14' E 021°11'5 5.4
2017-Mar-28 20:33N 70°09' E 021°09'7 6.6
2017-Mar-28 19:33N 70°02' E 021°08'7 7.1
2017-Mar-28 18:33N 69°55' E 021°04'8 8.0
2017-Mar-28 17:33N 69°48' E 020°56'0 0.1
2017-Mar-28 16:33N 69°48' E 020°57'0 0.0
2017-Mar-28 15:05N 69°48' E 020°57'0 0.0
2017-Mar-28 14:33N 69°48' E 020°57'0 0.0
2017-Mar-28 13:29N 69°48' E 020°57'0 0.0
2017-Mar-28 12:32N 69°48' E 020°57'1 0.3
2017-Mar-28 10:32N 69°48' E 020°57'1 0.2
2017-Mar-28 08:14N 69°48' E 020°57'0 0.0
2017-Mar-28 07:27N 69°48' E 020°57'0 0.0
2017-Mar-28 05:15N 69°48' E 020°57'5 7.1
2017-Mar-28 04:33N 69°53' E 021°01'9 9.0
2017-Mar-28 03:33N 70°01' E 021°07'9 8.7
2017-Mar-28 02:33N 70°10' E 021°09'7 7.0
2017-Mar-28 01:33N 70°16' E 021°17'8 7.8
2017-Mar-28 00:33N 70°22' E 021°35'6 5.9
2017-Mar-27 23:33N 70°23' E 021°52'7 7.2
2017-Mar-27 22:33N 70°19' E 022°11'7 7.2
2017-Mar-27 21:33N 70°16' E 022°30'8 8.3
2017-Mar-27 20:33N 70°13' E 022°53'7 7.5
2017-Mar-27 19:33N 70°07' E 023°04'8 7.9
2017-Mar-27 18:33N 69°59' E 023°12'1 1.5
2017-Mar-27 17:33N 69°58' E 023°13'0 0.0
2017-Mar-27 16:32N 69°58' E 023°13'0 0.0
2017-Mar-27 15:33N 69°58' E 023°13'0 0.0
2017-Mar-27 14:33N 69°58' E 023°13'0 0.0
2017-Mar-27 13:33N 69°58' E 023°13'0 0.0
2017-Mar-27 12:33N 69°58' E 023°13'0 0.0
2017-Mar-27 11:33N 69°58' E 023°13'0 0.0
2017-Mar-27 10:32N 69°58' E 023°13'0 0.0
2017-Mar-27 09:33N 69°58' E 023°13'0 0.0
2017-Mar-27 08:33N 69°58' E 023°13'0 0.0
2017-Mar-27 07:32N 69°58' E 023°13'0 0.0
2017-Mar-27 06:33N 69°58' E 023°13'0 0.0
2017-Mar-27 05:33N 69°58' E 023°13'0 0.0
2017-Mar-27 04:33N 69°58' E 023°13'0 0.0
2017-Mar-27 03:33N 69°58' E 023°13'0 0.0
2017-Mar-27 02:33N 69°58' E 023°13'0 0.0
2017-Mar-27 01:33N 69°58' E 023°13'0 0.0
2017-Mar-27 00:33N 69°58' E 023°13'0 0.0
2017-Mar-26 23:32N 69°58' E 023°13'0 0.0
2017-Mar-26 22:33N 69°58' E 023°13'0 0.0
2017-Mar-26 21:33N 69°58' E 023°13'0 0.0
2017-Mar-26 20:33N 69°58' E 023°13'0 0.0
2017-Mar-26 19:33N 69°58' E 023°13'0 0.0
2017-Mar-26 18:32N 69°58' E 023°13'0 0.0
2017-Mar-26 17:33N 69°58' E 023°13'0 0.0
2017-Mar-26 16:32N 69°58' E 023°13'0 0.0
2017-Mar-26 15:33N 69°58' E 023°13'0 0.0
2017-Mar-26 14:33N 69°58' E 023°13'0 0.0
2017-Mar-26 13:33N 69°58' E 023°13'0 0.0
2017-Mar-26 12:33N 69°58' E 023°13'0 0.0
2017-Mar-26 11:33N 69°58' E 023°13'0 0.0
2017-Mar-26 10:32N 69°58' E 023°13'0 0.0
2017-Mar-26 09:33N 69°58' E 023°13'0 0.0
2017-Mar-26 08:33N 69°58' E 023°13'0 0.0
2017-Mar-26 07:32N 69°58' E 023°13'0 0.0
2017-Mar-26 06:33N 69°58' E 023°13'0 0.0
2017-Mar-26 05:33N 69°58' E 023°13'0 0.0
2017-Mar-26 04:32N 69°58' E 023°13'0 0.0
2017-Mar-26 03:33N 69°58' E 023°13'0 0.0
2017-Mar-26 02:33N 69°58' E 023°13'0 0.0
2017-Mar-26 01:33N 69°58' E 023°13'0 0.0
2017-Mar-26 00:33N 69°58' E 023°13'0 0.0
2017-Mar-25 23:33N 69°58' E 023°13'0 0.0
2017-Mar-25 22:33N 69°58' E 023°13'4 4.4
2017-Mar-25 21:33N 70°02' E 023°08'8 7.6
2017-Mar-25 20:33N 70°09' E 023°02'8 8.1
2017-Mar-25 19:33N 70°14' E 022°44'9 8.9
2017-Mar-25 18:33N 70°18' E 022°20'9 8.8
2017-Mar-25 17:33N 70°22' E 021°56'7 7.0
2017-Mar-25 16:32N 70°21' E 021°35'9 9.4
2017-Mar-25 15:33N 70°15' E 021°14'9 9.2
2017-Mar-25 14:33N 70°07' E 020°60'9 9.3
2017-Mar-25 13:32N 70°01' E 020°40'9 9.1
2017-Mar-25 12:33N 69°53' E 020°29'10 9.5
2017-Mar-25 11:33N 69°43' E 020°26'8 1.0
2017-Mar-25 03:20N 69°35' E 020°31'5 6.3
2017-Mar-25 02:33N 69°40' E 020°26'7 6.3
2017-Mar-25 01:29N 69°47' E 020°25'6 6.3
2017-Mar-25 00:33N 69°52' E 020°25'7 6.5
2017-Mar-24 23:33N 69°59' E 020°19'7 7.0
2017-Mar-24 22:33N 69°54' E 020°03'8 8.3
2017-Mar-24 21:33N 69°47' E 019°51'8 8.5
2017-Mar-24 20:33N 69°39' E 019°45'2 2.5
2017-Mar-24 19:33N 69°37' E 019°44'0 0.0
2017-Mar-24 18:33N 69°37' E 019°44'0 0.0
2017-Mar-24 17:33N 69°37' E 019°44'0 0.0
2017-Mar-24 16:33N 69°37' E 019°44'2 1.8
2017-Mar-24 15:33N 69°38' E 019°45'8 7.9
2017-Mar-24 14:33N 69°46' E 019°45'7 7.0
2017-Mar-24 13:32N 69°48' E 019°25'9 9.5
2017-Mar-24 12:33N 69°42' E 019°03'3 2.9
2017-Mar-24 11:33N 69°40' E 018°58'0 0.3
2017-Mar-24 10:33N 69°40' E 018°58'0 0.0
2017-Mar-24 09:33N 69°40' E 018°58'0 0.0
2017-Mar-24 08:33N 69°40' E 018°58'0 0.0
2017-Mar-24 07:33N 69°40' E 018°58'0 0.0
2017-Mar-24 06:33N 69°40' E 018°58'0 0.0
2017-Mar-24 05:32N 69°40' E 018°58'0 0.0
2017-Mar-24 04:33N 69°40' E 018°58'0 0.0
2017-Mar-24 03:33N 69°40' E 018°58'0 0.0
2017-Mar-24 02:32N 69°40' E 018°58'0 0.0
2017-Mar-24 01:32N 69°40' E 018°58'0 0.0
2017-Mar-24 00:33N 69°40' E 018°58'6 5.6
2017-Mar-23 23:33N 69°45' E 019°06'8 8.4
2017-Mar-23 22:33N 69°48' E 019°28'6 6.0
2017-Mar-23 21:33N 69°47' E 019°45'9 9.0
2017-Mar-23 20:32N 69°38' E 019°45'1 1.2
2017-Mar-23 19:32N 69°37' E 019°44'0 0.0
2017-Mar-23 18:33N 69°37' E 019°44'0 0.0
2017-Mar-23 17:33N 69°37' E 019°44'0 0.0
2017-Mar-23 16:33N 69°37' E 019°44'2 1.8
2017-Mar-23 15:10N 69°39' E 019°45'4 6.3
2017-Mar-23 14:33N 69°43' E 019°46'6 6.3
2017-Mar-23 13:33N 69°49' E 019°53'6 6.3
2017-Mar-23 12:33N 69°54' E 020°02'7 6.5
2017-Mar-23 11:32N 69°59' E 020°15'6 5.7
2017-Mar-23 10:33N 70°01' E 020°31'6 6.2
2017-Mar-23 09:33N 70°03' E 020°48'6 6.2
2017-Mar-23 08:32N 70°07' E 020°60'7 7.3
2017-Mar-23 07:33N 70°14' E 021°09'7 7.0
2017-Mar-23 06:33N 70°18' E 021°25'7 7.4
2017-Mar-23 05:33N 70°24' E 021°41'5 5.2
2017-Mar-23 04:33N 70°25' E 021°56'6 6.1
2017-Mar-23 03:33N 70°27' E 022°13'7 6.9
2017-Mar-23 02:33N 70°29' E 022°33'7 7.2
2017-Mar-23 01:33N 70°31' E 022°54'7 6.4
2017-Mar-23 00:32N 70°35' E 023°08'6 6.6
2017-Mar-22 23:33N 70°41' E 023°19'7 6.8
2017-Mar-22 22:33N 70°46' E 023°31'7 6.7
2017-Mar-22 21:33N 70°52' E 023°40'7 6.7
2017-Mar-22 20:33N 70°58' E 023°48'3 2.6
2017-Mar-22 19:32N 71°00' E 023°54'0 0.0
2017-Mar-22 18:32N 71°00' E 023°54'0 0.0
2017-Mar-22 17:33N 71°00' E 023°54'6 5.8
2017-Mar-22 16:32N 70°55' E 023°45'9 8.9
2017-Mar-22 15:33N 70°47' E 023°33'9 9.3
2017-Mar-22 14:33N 70°40' E 023°17'9 9.3
2017-Mar-22 13:33N 70°32' E 023°00'9 8.5
2017-Mar-22 12:33N 70°29' E 022°37'8 8.0
2017-Mar-22 11:33N 70°27' E 022°13'9 8.9
2017-Mar-22 10:33N 70°25' E 021°47'9 9.0
2017-Mar-22 09:33N 70°23' E 021°21'9 9.2
2017-Mar-22 08:33N 70°19' E 020°57'10 9.7
2017-Mar-22 07:33N 70°14' E 020°32'10 9.8
2017-Mar-22 06:33N 70°08' E 020°09'3 3.4
2017-Mar-22 05:33N 70°08' E 019°59'0 0.0
2017-Mar-22 04:33N 70°08' E 019°59'0 0.0
2017-Mar-22 03:33N 70°08' E 019°59'0 0.2
2017-Mar-22 02:33N 70°08' E 019°59'8 8.0
2017-Mar-22 01:33N 70°02' E 020°17'10 9.7
2017-Mar-22 00:33N 69°53' E 020°25'1010.1
2017-Mar-21 23:33N 69°43' E 020°26'6 0.9
2017-Mar-21 16:33N 69°37' E 020°28'7 7.3
2017-Mar-21 15:33N 69°44' E 020°26'8 7.5
2017-Mar-21 14:33N 69°52' E 020°25'7 7.4
2017-Mar-21 13:33N 69°59' E 020°18'9 8.7
2017-Mar-21 12:33N 69°54' E 019°57'9 8.6
2017-Mar-21 11:33N 69°50' E 019°35'9 8.8
2017-Mar-21 10:33N 69°46' E 019°12'8 8.1
2017-Mar-21 09:33N 69°40' E 018°58'0 0.1
2017-Mar-21 08:33N 69°40' E 018°58'0 0.0
2017-Mar-21 07:33N 69°40' E 018°58'0 0.0
2017-Mar-21 06:33N 69°40' E 018°58'0 0.0
2017-Mar-21 05:33N 69°40' E 018°58'0 0.0
2017-Mar-21 04:32N 69°40' E 018°58'0 0.0
2017-Mar-21 03:33N 69°40' E 018°58'0 0.0
2017-Mar-21 02:32N 69°40' E 018°58'0 0.0
2017-Mar-21 01:33N 69°40' E 018°58'0 0.0
2017-Mar-21 00:33N 69°40' E 018°58'0 0.0
2017-Mar-20 23:33N 69°40' E 018°58'0 0.0
2017-Mar-20 22:33N 69°40' E 018°58'0 0.0
2017-Mar-20 21:33N 69°40' E 018°58'6 5.7
2017-Mar-20 20:33N 69°35' E 018°50'8 8.1
2017-Mar-20 19:33N 69°31' E 018°29'8 8.4
2017-Mar-20 18:33N 69°28' E 018°07'9 8.9
2017-Mar-20 17:33N 69°19' E 017°60'8 8.3
2017-Mar-20 16:33N 69°11' E 017°60'9 8.8
2017-Mar-20 15:33N 69°07' E 017°38'9 8.4
2017-Mar-20 14:33N 69°02' E 017°18'8 7.7
2017-Mar-20 13:33N 68°56' E 017°04'8 8.2
2017-Mar-20 12:33N 68°51' E 016°47'6 5.7
2017-Mar-20 11:33N 68°47' E 016°36'0 0.0
2017-Mar-20 10:31N 68°47' E 016°36'0 0.0
2017-Mar-20 09:33N 68°47' E 016°36'0 0.0
2017-Mar-20 08:32N 68°47' E 016°36'6 6.1
2017-Mar-20 07:33N 68°41' E 016°40'9 9.2
2017-Mar-20 06:32N 68°33' E 016°25'6 6.6
2017-Mar-20 05:33N 68°31' E 016°09'9 9.1
2017-Mar-20 04:33N 68°22' E 015°59'8 8.5
2017-Mar-20 03:33N 68°18' E 015°39'6 5.7
2017-Mar-20 02:33N 68°21' E 015°26'0 0.0
2017-Mar-20 01:33N 68°21' E 015°26'0 0.0
2017-Mar-20 00:33N 68°21' E 015°26'1 1.0
2017-Mar-19 23:32N 68°20' E 015°28'7 6.7
2017-Mar-19 22:33N 68°13' E 015°28'9 9.3
2017-Mar-19 21:32N 68°06' E 015°11'1010.0
2017-Mar-19 20:33N 67°59' E 014°53'10 9.6
2017-Mar-19 19:33N 67°51' E 014°40'9 9.1
2017-Mar-19 18:33N 67°42' E 014°31'8 8.0
2017-Mar-19 17:33N 67°37' E 014°47'10 9.7
2017-Mar-19 16:33N 67°34' E 015°11'  

Dump ship's entire track history